Wetterstation Rossbuehl

Zugriff auf die letzten 10 Werte 30 Werte 100 Werte 400 Werte

Datum_____UhrzeitWind
Mittel
Wind
min
Wind
Boe
Wind
BoeTag
Wind
Richtung
Temp1
Feuchte Station Power
type
BatterieInter
vall
SMS
JJJJ-MM-TT hh:mmkm/hmin SpitzePeak Grad °C % ID Ex.oBat Volt min St.
2019-10-22 00:19 4 3 6 315 9.5 8 2 5.80 1
2019-10-22 00:04 6 4 8 254 9.4 12 2 5.81 1
2019-10-21 23:49 0 0 0 305 8.9 19 2 5.82 1
2019-10-21 23:34 0 0 0 234 9.1 6 2 5.81 1
2019-10-21 23:19 0 0 0 247 9.4 0 2 5.81 1
2019-10-21 23:04 0 0 0 248 9.7 10 2 5.80 1
2019-10-21 22:49 0 0 0 250 9.4 6 2 5.82 1
2019-10-21 22:20 0 0 0 266 9.6 10 2 5.81 1
2019-10-21 22:04 0 0 0 260 9.8 6 2 5.82 1
2019-10-21 21:34 0 0 0 247 9.9 12 2 5.81 1
2019-10-21 21:19 0 0 0 266 9.1 17 2 5.82 1
2019-10-21 21:04 0 0 0 283 9.7 6 2 5.82 1
2019-10-21 20:49 8 5 10 263 9.6 8 2 5.82 1
2019-10-21 20:34 9 8 9 262 9.4 12 2 5.82 1
2019-10-21 20:19 9 7 10 250 9.2 8 2 5.80 1
2019-10-21 20:04 6 4 7 240 8.9 10 2 5.80 1
2019-10-21 19:49 7 4 10 251 8.9 13 2 5.81 1
2019-10-21 19:34 5 3 10 241 9 19 2 5.81 1
2019-10-21 19:19 4 0 11 242 8.8 10 2 5.80 1
2019-10-21 19:04 3 3 6 262 8.9 8 2 5.80 1